sensor_id;sensor_type;location;lat;lon;timestamp;temperature;humidity
3478;DHT22;37937;61.490;23.506;2023-12-14T00:01:12;-7.70;99.90
3478;DHT22;37937;61.490;23.506;2023-12-14T00:03:41;-7.80;99.90
3478;DHT22;37937;61.490;23.506;2023-12-14T00:06:12;-7.80;99.90
3478;DHT22;37937;61.490;23.506;2023-12-14T00:08:38;-7.70;99.90
3478;DHT22;37937;61.490;23.506;2023-12-14T00:11:05;-7.80;99.90
3478;DHT22;37937;61.490;23.506;2023-12-14T00:13:30;-7.80;99.90
3478;DHT22;37937;61.490;23.506;2023-12-14T00:15:56;-7.80;99.90
3478;DHT22;37937;61.490;23.506;2023-12-14T00:18:21;-7.70;99.90
3478;DHT22;37937;61.490;23.506;2023-12-14T00:20:47;-7.80;99.90
3478;DHT22;37937;61.490;23.506;2023-12-14T00:23:13;-7.80;99.90
3478;DHT22;37937;61.490;23.506;2023-12-14T00:25:39;-7.80;99.90
3478;DHT22;37937;61.490;23.506;2023-12-14T00:28:04;-7.80;99.90
3478;DHT22;37937;61.490;23.506;2023-12-14T00:30:30;-7.80;99.90
3478;DHT22;37937;61.490;23.506;2023-12-14T00:32:56;-7.80;99.90
3478;DHT22;37937;61.490;23.506;2023-12-14T00:35:21;-7.80;99.90
3478;DHT22;37937;61.490;23.506;2023-12-14T00:37:47;-7.80;99.90
3478;DHT22;37937;61.490;23.506;2023-12-14T00:40:12;-7.80;99.90
3478;DHT22;37937;61.490;23.506;2023-12-14T00:42:38;-7.80;99.90
3478;DHT22;37937;61.490;23.506;2023-12-14T00:45:04;-7.70;99.90
3478;DHT22;37937;61.490;23.506;2023-12-14T00:47:29;-7.70;99.90
3478;DHT22;37937;61.490;23.506;2023-12-14T00:49:55;-7.70;99.90
3478;DHT22;37937;61.490;23.506;2023-12-14T00:52:21;-7.70;99.90
3478;DHT22;37937;61.490;23.506;2023-12-14T00:54:46;-7.60;99.90
3478;DHT22;37937;61.490;23.506;2023-12-14T00:57:12;-7.60;99.90
3478;DHT22;37937;61.490;23.506;2023-12-14T00:59:37;-7.60;99.90
3478;DHT22;37937;61.490;23.506;2023-12-14T01:02:03;-7.60;99.90
3478;DHT22;37937;61.490;23.506;2023-12-14T01:04:29;-7.50;99.90
3478;DHT22;37937;61.490;23.506;2023-12-14T01:06:54;-7.60;99.90
3478;DHT22;37937;61.490;23.506;2023-12-14T01:09:20;-7.50;99.90
3478;DHT22;37937;61.490;23.506;2023-12-14T01:11:45;-7.40;99.90
3478;DHT22;37937;61.490;23.506;2023-12-14T01:14:11;-7.50;99.90
3478;DHT22;37937;61.490;23.506;2023-12-14T01:16:37;-7.50;99.90
3478;DHT22;37937;61.490;23.506;2023-12-14T01:19:03;-7.40;99.90
3478;DHT22;37937;61.490;23.506;2023-12-14T01:21:31;-7.40;99.90
3478;DHT22;37937;61.490;23.506;2023-12-14T01:23:57;-7.40;99.90
3478;DHT22;37937;61.490;23.506;2023-12-14T01:26:22;-7.30;99.90
3478;DHT22;37937;61.490;23.506;2023-12-14T01:28:48;-7.30;99.90
3478;DHT22;37937;61.490;23.506;2023-12-14T01:31:13;-7.40;99.90
3478;DHT22;37937;61.490;23.506;2023-12-14T01:33:39;-7.40;99.90
3478;DHT22;37937;61.490;23.506;2023-12-14T01:36:05;-7.30;99.90
3478;DHT22;37937;61.490;23.506;2023-12-14T01:38:30;-7.40;99.90
3478;DHT22;37937;61.490;23.506;2023-12-14T01:40:56;-7.30;99.90
3478;DHT22;37937;61.490;23.506;2023-12-14T01:43:21;-7.30;99.90
3478;DHT22;37937;61.490;23.506;2023-12-14T01:45:47;-7.30;99.90
3478;DHT22;37937;61.490;23.506;2023-12-14T01:48:13;-7.30;99.90
3478;DHT22;37937;61.490;23.506;2023-12-14T01:50:38;-7.30;99.90
3478;DHT22;37937;61.490;23.506;2023-12-14T01:53:04;-7.30;99.90
3478;DHT22;37937;61.490;23.506;2023-12-14T01:55:29;-7.30;99.90
3478;DHT22;37937;61.490;23.506;2023-12-14T01:57:55;-7.30;99.90
3478;DHT22;37937;61.490;23.506;2023-12-14T02:00:30;-7.30;99.90
3478;DHT22;37937;61.490;23.506;2023-12-14T02:03:00;-7.20;99.90
3478;DHT22;37937;61.490;23.506;2023-12-14T02:05:25;-7.20;99.90
3478;DHT22;37937;61.490;23.506;2023-12-14T02:07:51;-7.20;99.90
3478;DHT22;37937;61.490;23.506;2023-12-14T02:10:16;-7.20;99.90
3478;DHT22;37937;61.490;23.506;2023-12-14T02:12:42;-7.10;99.90
3478;DHT22;37937;61.490;23.506;2023-12-14T02:15:08;-7.10;99.90
3478;DHT22;37937;61.490;23.506;2023-12-14T02:17:34;-7.00;99.90
3478;DHT22;37937;61.490;23.506;2023-12-14T02:19:59;-7.10;99.90
3478;DHT22;37937;61.490;23.506;2023-12-14T02:22:26;-7.00;99.90
3478;DHT22;37937;61.490;23.506;2023-12-14T02:24:51;-7.10;99.90
3478;DHT22;37937;61.490;23.506;2023-12-14T02:27:17;-7.10;99.90
3478;DHT22;37937;61.490;23.506;2023-12-14T02:29:42;-7.00;99.90
3478;DHT22;37937;61.490;23.506;2023-12-14T02:32:08;-7.10;99.90
3478;DHT22;37937;61.490;23.506;2023-12-14T02:34:33;-7.00;99.90
3478;DHT22;37937;61.490;23.506;2023-12-14T02:36:59;-6.90;99.90
3478;DHT22;37937;61.490;23.506;2023-12-14T02:39:25;-6.90;99.90
3478;DHT22;37937;61.490;23.506;2023-12-14T02:41:50;-6.90;99.90
3478;DHT22;37937;61.490;23.506;2023-12-14T02:44:16;-6.90;99.90
3478;DHT22;37937;61.490;23.506;2023-12-14T02:46:41;-6.80;99.90
3478;DHT22;37937;61.490;23.506;2023-12-14T02:49:07;-6.80;99.90
3478;DHT22;37937;61.490;23.506;2023-12-14T02:51:33;-6.80;99.90
3478;DHT22;37937;61.490;23.506;2023-12-14T02:53:58;-6.80;99.90
3478;DHT22;37937;61.490;23.506;2023-12-14T02:56:24;-6.80;99.90
3478;DHT22;37937;61.490;23.506;2023-12-14T02:58:50;-6.80;99.90
3478;DHT22;37937;61.490;23.506;2023-12-14T03:01:19;-6.80;99.90
3478;DHT22;37937;61.490;23.506;2023-12-14T03:03:46;-6.80;99.90
3478;DHT22;37937;61.490;23.506;2023-12-14T03:06:12;-6.80;99.90
3478;DHT22;37937;61.490;23.506;2023-12-14T03:08:38;-6.70;99.90
3478;DHT22;37937;61.490;23.506;2023-12-14T03:11:03;-6.80;99.90
3478;DHT22;37937;61.490;23.506;2023-12-14T03:13:29;-6.80;99.90
3478;DHT22;37937;61.490;23.506;2023-12-14T03:15:55;-6.80;99.90
3478;DHT22;37937;61.490;23.506;2023-12-14T03:18:20;-6.80;99.90
3478;DHT22;37937;61.490;23.506;2023-12-14T03:20:46;-6.80;99.90
3478;DHT22;37937;61.490;23.506;2023-12-14T03:23:11;-6.80;99.90
3478;DHT22;37937;61.490;23.506;2023-12-14T03:25:37;-6.70;99.90
3478;DHT22;37937;61.490;23.506;2023-12-14T03:28:03;-6.80;99.90
3478;DHT22;37937;61.490;23.506;2023-12-14T03:30:28;-6.70;99.90
3478;DHT22;37937;61.490;23.506;2023-12-14T03:32:54;-6.70;99.90
3478;DHT22;37937;61.490;23.506;2023-12-14T03:35:19;-6.80;99.90
3478;DHT22;37937;61.490;23.506;2023-12-14T03:37:45;-6.80;99.90
3478;DHT22;37937;61.490;23.506;2023-12-14T03:40:11;-6.70;99.90
3478;DHT22;37937;61.490;23.506;2023-12-14T03:42:36;-6.70;99.90
3478;DHT22;37937;61.490;23.506;2023-12-14T03:45:02;-6.80;99.90
3478;DHT22;37937;61.490;23.506;2023-12-14T03:47:27;-6.80;99.90
3478;DHT22;37937;61.490;23.506;2023-12-14T03:49:53;-6.80;99.90
3478;DHT22;37937;61.490;23.506;2023-12-14T03:52:19;-6.80;99.90
3478;DHT22;37937;61.490;23.506;2023-12-14T03:54:44;-6.80;99.90
3478;DHT22;37937;61.490;23.506;2023-12-14T03:57:10;-6.70;99.90
3478;DHT22;37937;61.490;23.506;2023-12-14T03:59:39;-6.70;99.90
3478;DHT22;37937;61.490;23.506;2023-12-14T04:02:05;-6.70;99.90
3478;DHT22;37937;61.490;23.506;2023-12-14T04:04:31;-6.70;99.90
3478;DHT22;37937;61.490;23.506;2023-12-14T04:06:56;-6.70;99.90
3478;DHT22;37937;61.490;23.506;2023-12-14T04:09:22;-6.70;99.90
3478;DHT22;37937;61.490;23.506;2023-12-14T04:11:48;-6.60;99.90
3478;DHT22;37937;61.490;23.506;2023-12-14T04:14:13;-6.70;99.90
3478;DHT22;37937;61.490;23.506;2023-12-14T04:16:39;-6.70;99.90
3478;DHT22;37937;61.490;23.506;2023-12-14T04:19:04;-6.70;99.90
3478;DHT22;37937;61.490;23.506;2023-12-14T04:21:35;-6.70;99.90
3478;DHT22;37937;61.490;23.506;2023-12-14T04:24:01;-6.70;99.90
3478;DHT22;37937;61.490;23.506;2023-12-14T04:26:26;-6.70;99.90
3478;DHT22;37937;61.490;23.506;2023-12-14T04:28:53;-6.70;99.90
3478;DHT22;37937;61.490;23.506;2023-12-14T04:31:19;-6.70;99.90
3478;DHT22;37937;61.490;23.506;2023-12-14T04:33:44;-6.70;99.90
3478;DHT22;37937;61.490;23.506;2023-12-14T04:36:10;-6.70;99.90
3478;DHT22;37937;61.490;23.506;2023-12-14T04:38:35;-6.60;99.90
3478;DHT22;37937;61.490;23.506;2023-12-14T04:41:01;-6.60;99.90
3478;DHT22;37937;61.490;23.506;2023-12-14T04:43:26;-6.70;99.90
3478;DHT22;37937;61.490;23.506;2023-12-14T04:45:54;-6.60;99.90
3478;DHT22;37937;61.490;23.506;2023-12-14T04:48:20;-6.60;99.90
3478;DHT22;37937;61.490;23.506;2023-12-14T04:50:46;-6.60;99.90
3478;DHT22;37937;61.490;23.506;2023-12-14T04:53:12;-6.60;99.90
3478;DHT22;37937;61.490;23.506;2023-12-14T04:55:37;-6.60;99.90
3478;DHT22;37937;61.490;23.506;2023-12-14T04:58:03;-6.60;99.90
3478;DHT22;37937;61.490;23.506;2023-12-14T05:00:28;-6.60;99.90
3478;DHT22;37937;61.490;23.506;2023-12-14T05:02:54;-6.60;99.90
3478;DHT22;37937;61.490;23.506;2023-12-14T05:05:20;-6.60;99.90
3478;DHT22;37937;61.490;23.506;2023-12-14T05:07:45;-6.60;99.90
3478;DHT22;37937;61.490;23.506;2023-12-14T05:10:11;-6.60;99.90
3478;DHT22;37937;61.490;23.506;2023-12-14T05:12:36;-6.50;99.90
3478;DHT22;37937;61.490;23.506;2023-12-14T05:15:03;-6.60;99.90
3478;DHT22;37937;61.490;23.506;2023-12-14T05:17:29;-6.50;99.90
3478;DHT22;37937;61.490;23.506;2023-12-14T05:19:55;-6.50;99.90
3478;DHT22;37937;61.490;23.506;2023-12-14T05:22:21;-6.50;99.90
3478;DHT22;37937;61.490;23.506;2023-12-14T05:24:47;-6.50;99.90
3478;DHT22;37937;61.490;23.506;2023-12-14T05:27:12;-6.50;99.90
3478;DHT22;37937;61.490;23.506;2023-12-14T05:29:38;-6.50;99.90
3478;DHT22;37937;61.490;23.506;2023-12-14T05:32:03;-6.50;99.90
3478;DHT22;37937;61.490;23.506;2023-12-14T05:34:29;-6.40;99.90
3478;DHT22;37937;61.490;23.506;2023-12-14T05:36:55;-6.40;99.90
3478;DHT22;37937;61.490;23.506;2023-12-14T05:39:20;-6.40;99.90
3478;DHT22;37937;61.490;23.506;2023-12-14T05:41:46;-6.40;99.90
3478;DHT22;37937;61.490;23.506;2023-12-14T05:44:11;-6.40;99.90
3478;DHT22;37937;61.490;23.506;2023-12-14T05:46:38;-6.40;99.90
3478;DHT22;37937;61.490;23.506;2023-12-14T05:49:04;-6.40;99.90
3478;DHT22;37937;61.490;23.506;2023-12-14T05:51:30;-6.40;99.90
3478;DHT22;37937;61.490;23.506;2023-12-14T05:53:55;-6.40;99.90
3478;DHT22;37937;61.490;23.506;2023-12-14T05:56:21;-6.30;99.90
3478;DHT22;37937;61.490;23.506;2023-12-14T05:58:47;-6.40;99.90
3478;DHT22;37937;61.490;23.506;2023-12-14T06:01:12;-6.30;99.90
3478;DHT22;37937;61.490;23.506;2023-12-14T06:03:38;-6.30;99.90
3478;DHT22;37937;61.490;23.506;2023-12-14T06:06:04;-6.30;99.90
3478;DHT22;37937;61.490;23.506;2023-12-14T06:08:29;-6.30;99.90
3478;DHT22;37937;61.490;23.506;2023-12-14T06:10:55;-6.30;99.90
3478;DHT22;37937;61.490;23.506;2023-12-14T06:13:20;-6.30;99.90
3478;DHT22;37937;61.490;23.506;2023-12-14T06:15:46;-6.30;99.90
3478;DHT22;37937;61.490;23.506;2023-12-14T06:18:12;-6.30;99.90
3478;DHT22;37937;61.490;23.506;2023-12-14T06:20:39;-6.30;99.90
3478;DHT22;37937;61.490;23.506;2023-12-14T06:23:06;-6.30;99.90
3478;DHT22;37937;61.490;23.506;2023-12-14T06:25:31;-6.20;99.90
3478;DHT22;37937;61.490;23.506;2023-12-14T06:27:57;-6.30;99.90
3478;DHT22;37937;61.490;23.506;2023-12-14T06:30:22;-6.30;99.90
3478;DHT22;37937;61.490;23.506;2023-12-14T06:32:49;-6.30;99.90
3478;DHT22;37937;61.490;23.506;2023-12-14T06:35:14;-6.30;99.90
3478;DHT22;37937;61.490;23.506;2023-12-14T06:37:40;-6.20;99.90
3478;DHT22;37937;61.490;23.506;2023-12-14T06:40:08;-6.20;99.90
3478;DHT22;37937;61.490;23.506;2023-12-14T06:42:33;-6.20;99.90
3478;DHT22;37937;61.490;23.506;2023-12-14T06:45:00;-6.20;99.90
3478;DHT22;37937;61.490;23.506;2023-12-14T06:47:25;-6.20;99.90
3478;DHT22;37937;61.490;23.506;2023-12-14T06:49:51;-6.30;99.90
3478;DHT22;37937;61.490;23.506;2023-12-14T06:52:16;-6.10;99.90
3478;DHT22;37937;61.490;23.506;2023-12-14T06:54:42;-6.10;99.90
3478;DHT22;37937;61.490;23.506;2023-12-14T06:57:08;-6.10;99.90
3478;DHT22;37937;61.490;23.506;2023-12-14T06:59:33;-6.10;99.90
3478;DHT22;37937;61.490;23.506;2023-12-14T07:01:59;-6.10;99.90
3478;DHT22;37937;61.490;23.506;2023-12-14T07:04:24;-6.10;99.90
3478;DHT22;37937;61.490;23.506;2023-12-14T07:06:50;-6.10;99.90
3478;DHT22;37937;61.490;23.506;2023-12-14T07:09:17;-6.10;99.90
3478;DHT22;37937;61.490;23.506;2023-12-14T07:11:42;-6.00;99.90
3478;DHT22;37937;61.490;23.506;2023-12-14T07:14:08;-6.00;99.90
3478;DHT22;37937;61.490;23.506;2023-12-14T07:16:33;-6.00;99.90
3478;DHT22;37937;61.490;23.506;2023-12-14T07:18:59;-6.00;99.90
3478;DHT22;37937;61.490;23.506;2023-12-14T07:21:25;-6.00;99.90
3478;DHT22;37937;61.490;23.506;2023-12-14T07:23:50;-6.00;99.90
3478;DHT22;37937;61.490;23.506;2023-12-14T07:26:16;-6.00;99.90
3478;DHT22;37937;61.490;23.506;2023-12-14T07:28:41;-6.00;99.90
3478;DHT22;37937;61.490;23.506;2023-12-14T07:31:07;-5.90;99.90
3478;DHT22;37937;61.490;23.506;2023-12-14T07:33:32;-5.90;99.90
3478;DHT22;37937;61.490;23.506;2023-12-14T07:35:58;-5.90;99.90
3478;DHT22;37937;61.490;23.506;2023-12-14T07:38:23;-5.80;99.90
3478;DHT22;37937;61.490;23.506;2023-12-14T07:40:49;-5.80;99.90
3478;DHT22;37937;61.490;23.506;2023-12-14T07:43:15;-5.80;99.90
3478;DHT22;37937;61.490;23.506;2023-12-14T07:45:41;-5.80;99.90
3478;DHT22;37937;61.490;23.506;2023-12-14T07:48:06;-5.80;99.90
3478;DHT22;37937;61.490;23.506;2023-12-14T07:50:32;-5.80;99.90
3478;DHT22;37937;61.490;23.506;2023-12-14T07:52:57;-5.80;99.90
3478;DHT22;37937;61.490;23.506;2023-12-14T07:55:23;-5.80;99.90
3478;DHT22;37937;61.490;23.506;2023-12-14T07:57:49;-5.70;99.90
3478;DHT22;37937;61.490;23.506;2023-12-14T08:00:15;-5.70;99.90
3478;DHT22;37937;61.490;23.506;2023-12-14T08:02:40;-5.70;99.90
3478;DHT22;37937;61.490;23.506;2023-12-14T08:05:07;-5.70;99.90
3478;DHT22;37937;61.490;23.506;2023-12-14T08:07:32;-5.70;99.90
3478;DHT22;37937;61.490;23.506;2023-12-14T08:09:58;-5.70;99.90
3478;DHT22;37937;61.490;23.506;2023-12-14T08:12:24;-5.70;99.90
3478;DHT22;37937;61.490;23.506;2023-12-14T08:14:50;-5.60;99.90
3478;DHT22;37937;61.490;23.506;2023-12-14T08:17:16;-5.60;99.90
3478;DHT22;37937;61.490;23.506;2023-12-14T08:19:41;-5.60;99.90
3478;DHT22;37937;61.490;23.506;2023-12-14T08:22:08;-5.60;99.90
3478;DHT22;37937;61.490;23.506;2023-12-14T08:24:39;-5.60;99.90
3478;DHT22;37937;61.490;23.506;2023-12-14T08:27:05;-5.60;99.90
3478;DHT22;37937;61.490;23.506;2023-12-14T08:29:31;-5.60;99.90
3478;DHT22;37937;61.490;23.506;2023-12-14T08:31:56;-5.60;99.90
3478;DHT22;37937;61.490;23.506;2023-12-14T08:34:24;-5.50;99.90
3478;DHT22;37937;61.490;23.506;2023-12-14T08:36:50;-5.50;99.90
3478;DHT22;37937;61.490;23.506;2023-12-14T08:39:16;-5.50;99.90
3478;DHT22;37937;61.490;23.506;2023-12-14T08:41:41;-5.50;99.90
3478;DHT22;37937;61.490;23.506;2023-12-14T08:44:07;-5.50;99.90
3478;DHT22;37937;61.490;23.506;2023-12-14T08:46:42;-5.50;99.90
3478;DHT22;37937;61.490;23.506;2023-12-14T08:49:08;-5.40;99.90
3478;DHT22;37937;61.490;23.506;2023-12-14T08:51:34;-5.40;99.90
3478;DHT22;37937;61.490;23.506;2023-12-14T08:53:59;-5.40;99.90
3478;DHT22;37937;61.490;23.506;2023-12-14T08:56:25;-5.30;99.90
3478;DHT22;37937;61.490;23.506;2023-12-14T08:58:51;-5.30;99.90
3478;DHT22;37937;61.490;23.506;2023-12-14T09:01:21;-5.30;99.90
3478;DHT22;37937;61.490;23.506;2023-12-14T09:03:47;-5.30;99.90
3478;DHT22;37937;61.490;23.506;2023-12-14T09:06:13;-5.30;99.90
3478;DHT22;37937;61.490;23.506;2023-12-14T09:08:40;-5.20;99.90
3478;DHT22;37937;61.490;23.506;2023-12-14T09:11:06;-5.20;99.90
3478;DHT22;37937;61.490;23.506;2023-12-14T09:13:31;-5.20;99.90
3478;DHT22;37937;61.490;23.506;2023-12-14T09:15:57;-5.20;99.90
3478;DHT22;37937;61.490;23.506;2023-12-14T09:18:23;-5.30;99.90
3478;DHT22;37937;61.490;23.506;2023-12-14T09:20:49;-5.30;99.90
3478;DHT22;37937;61.490;23.506;2023-12-14T09:23:15;-5.20;99.90
3478;DHT22;37937;61.490;23.506;2023-12-14T09:25:41;-5.20;99.90
3478;DHT22;37937;61.490;23.506;2023-12-14T09:28:07;-5.10;99.90
3478;DHT22;37937;61.490;23.506;2023-12-14T09:30:33;-5.20;99.90
3478;DHT22;37937;61.490;23.506;2023-12-14T09:32:58;-5.10;99.90
3478;DHT22;37937;61.490;23.506;2023-12-14T09:35:24;-5.10;99.90
3478;DHT22;37937;61.490;23.506;2023-12-14T09:37:50;-5.10;99.90
3478;DHT22;37937;61.490;23.506;2023-12-14T09:40:15;-5.10;99.90
3478;DHT22;37937;61.490;23.506;2023-12-14T09:42:42;-5.00;99.90
3478;DHT22;37937;61.490;23.506;2023-12-14T09:45:08;-4.90;99.90
3478;DHT22;37937;61.490;23.506;2023-12-14T09:47:34;-4.90;99.90
3478;DHT22;37937;61.490;23.506;2023-12-14T09:50:00;-4.90;99.90
3478;DHT22;37937;61.490;23.506;2023-12-14T09:52:26;-4.90;99.90
3478;DHT22;37937;61.490;23.506;2023-12-14T09:54:51;-4.90;99.90
3478;DHT22;37937;61.490;23.506;2023-12-14T09:57:20;-4.90;99.90
3478;DHT22;37937;61.490;23.506;2023-12-14T09:59:53;-4.90;99.90
3478;DHT22;37937;61.490;23.506;2023-12-14T10:02:18;-4.80;99.90
3478;DHT22;37937;61.490;23.506;2023-12-14T10:04:45;-4.80;99.90
3478;DHT22;37937;61.490;23.506;2023-12-14T10:07:11;-4.80;99.90
3478;DHT22;37937;61.490;23.506;2023-12-14T10:09:37;-4.80;99.90
3478;DHT22;37937;61.490;23.506;2023-12-14T10:12:04;-4.80;99.90
3478;DHT22;37937;61.490;23.506;2023-12-14T10:14:30;-4.80;99.90
3478;DHT22;37937;61.490;23.506;2023-12-14T10:16:56;-4.80;99.90
3478;DHT22;37937;61.490;23.506;2023-12-14T10:19:21;-4.80;99.90
3478;DHT22;37937;61.490;23.506;2023-12-14T10:21:48;-4.80;99.90
3478;DHT22;37937;61.490;23.506;2023-12-14T10:24:14;-4.70;99.90
3478;DHT22;37937;61.490;23.506;2023-12-14T10:26:40;-4.70;99.90
3478;DHT22;37937;61.490;23.506;2023-12-14T10:29:06;-4.70;99.90
3478;DHT22;37937;61.490;23.506;2023-12-14T10:31:31;-4.70;99.90
3478;DHT22;37937;61.490;23.506;2023-12-14T10:33:57;-4.70;99.90
3478;DHT22;37937;61.490;23.506;2023-12-14T10:36:24;-4.60;99.90
3478;DHT22;37937;61.490;23.506;2023-12-14T10:38:54;-4.60;99.90
3478;DHT22;37937;61.490;23.506;2023-12-14T10:41:21;-4.60;99.90
3478;DHT22;37937;61.490;23.506;2023-12-14T10:43:48;-4.60;99.90
3478;DHT22;37937;61.490;23.506;2023-12-14T10:46:14;-4.50;99.90
3478;DHT22;37937;61.490;23.506;2023-12-14T10:48:40;-4.50;99.90
3478;DHT22;37937;61.490;23.506;2023-12-14T10:51:09;-4.50;99.90
3478;DHT22;37937;61.490;23.506;2023-12-14T10:53:37;-4.50;99.90
3478;DHT22;37937;61.490;23.506;2023-12-14T10:56:03;-4.50;99.90
3478;DHT22;37937;61.490;23.506;2023-12-14T11:01:15;-4.50;99.90
3478;DHT22;37937;61.490;23.506;2023-12-14T11:03:42;-4.40;99.90
3478;DHT22;37937;61.490;23.506;2023-12-14T11:06:19;-4.50;99.90
3478;DHT22;37937;61.490;23.506;2023-12-14T11:08:45;-4.40;99.90
3478;DHT22;37937;61.490;23.506;2023-12-14T11:11:11;-4.40;99.90
3478;DHT22;37937;61.490;23.506;2023-12-14T11:13:39;-4.40;99.90
3478;DHT22;37937;61.490;23.506;2023-12-14T11:16:05;-4.40;99.90
3478;DHT22;37937;61.490;23.506;2023-12-14T11:18:31;-4.40;99.90
3478;DHT22;37937;61.490;23.506;2023-12-14T11:20:57;-4.40;99.90
3478;DHT22;37937;61.490;23.506;2023-12-14T11:25:53;-4.40;99.90
3478;DHT22;37937;61.490;23.506;2023-12-14T11:28:19;-4.40;99.90
3478;DHT22;37937;61.490;23.506;2023-12-14T11:30:46;-4.40;99.90
3478;DHT22;37937;61.490;23.506;2023-12-14T11:33:12;-4.40;99.90
3478;DHT22;37937;61.490;23.506;2023-12-14T11:35:38;-4.30;99.90
3478;DHT22;37937;61.490;23.506;2023-12-14T11:38:03;-4.30;99.90
3478;DHT22;37937;61.490;23.506;2023-12-14T11:40:39;-4.30;99.90
3478;DHT22;37937;61.490;23.506;2023-12-14T11:43:04;-4.20;99.90
3478;DHT22;37937;61.490;23.506;2023-12-14T11:45:33;-4.30;99.90
3478;DHT22;37937;61.490;23.506;2023-12-14T11:47:59;-4.30;99.90
3478;DHT22;37937;61.490;23.506;2023-12-14T11:50:26;-4.30;99.90
3478;DHT22;37937;61.490;23.506;2023-12-14T11:52:52;-4.30;99.90
3478;DHT22;37937;61.490;23.506;2023-12-14T11:55:18;-4.30;99.90
3478;DHT22;37937;61.490;23.506;2023-12-14T11:57:46;-4.30;99.90
3478;DHT22;37937;61.490;23.506;2023-12-14T12:00:12;-4.30;99.90
3478;DHT22;37937;61.490;23.506;2023-12-14T12:02:38;-4.30;99.90
3478;DHT22;37937;61.490;23.506;2023-12-14T12:05:06;-4.40;99.90
3478;DHT22;37937;61.490;23.506;2023-12-14T12:07:32;-4.40;99.90
3478;DHT22;37937;61.490;23.506;2023-12-14T12:09:58;-4.40;99.90
3478;DHT22;37937;61.490;23.506;2023-12-14T12:12:24;-4.30;99.90
3478;DHT22;37937;61.490;23.506;2023-12-14T12:14:49;-4.30;99.90
3478;DHT22;37937;61.490;23.506;2023-12-14T12:17:18;-4.30;99.90
3478;DHT22;37937;61.490;23.506;2023-12-14T12:19:45;-4.30;99.90
3478;DHT22;37937;61.490;23.506;2023-12-14T12:22:11;-4.30;99.90
3478;DHT22;37937;61.490;23.506;2023-12-14T12:24:36;-4.30;99.90
3478;DHT22;37937;61.490;23.506;2023-12-14T12:27:03;-4.40;99.90
3478;DHT22;37937;61.490;23.506;2023-12-14T12:29:29;-4.40;99.90
3478;DHT22;37937;61.490;23.506;2023-12-14T12:31:55;-4.40;99.90
3478;DHT22;37937;61.490;23.506;2023-12-14T12:34:21;-4.40;99.90
3478;DHT22;37937;61.490;23.506;2023-12-14T12:36:47;-4.50;99.90
3478;DHT22;37937;61.490;23.506;2023-12-14T12:39:12;-4.40;99.90
3478;DHT22;37937;61.490;23.506;2023-12-14T12:41:38;-4.50;99.90
3478;DHT22;37937;61.490;23.506;2023-12-14T12:44:04;-4.40;99.90
3478;DHT22;37937;61.490;23.506;2023-12-14T12:46:36;-4.40;99.90
3478;DHT22;37937;61.490;23.506;2023-12-14T12:49:02;-4.40;99.90
3478;DHT22;37937;61.490;23.506;2023-12-14T12:51:28;-4.40;99.90
3478;DHT22;37937;61.490;23.506;2023-12-14T12:53:55;-4.40;99.90
3478;DHT22;37937;61.490;23.506;2023-12-14T12:56:21;-4.40;99.90
3478;DHT22;37937;61.490;23.506;2023-12-14T12:58:46;-4.40;99.90
3478;DHT22;37937;61.490;23.506;2023-12-14T13:01:14;-4.40;99.90
3478;DHT22;37937;61.490;23.506;2023-12-14T13:03:39;-4.40;99.90
3478;DHT22;37937;61.490;23.506;2023-12-14T13:06:05;-4.40;99.90
3478;DHT22;37937;61.490;23.506;2023-12-14T13:08:31;-4.40;99.90
3478;DHT22;37937;61.490;23.506;2023-12-14T13:10:56;-4.50;99.90
3478;DHT22;37937;61.490;23.506;2023-12-14T13:13:22;-4.50;99.90
3478;DHT22;37937;61.490;23.506;2023-12-14T13:15:47;-4.50;99.90
3478;DHT22;37937;61.490;23.506;2023-12-14T13:18:13;-4.50;99.90
3478;DHT22;37937;61.490;23.506;2023-12-14T13:20:42;-4.50;99.90
3478;DHT22;37937;61.490;23.506;2023-12-14T13:23:08;-4.50;99.90
3478;DHT22;37937;61.490;23.506;2023-12-14T13:25:33;-4.50;99.90
3478;DHT22;37937;61.490;23.506;2023-12-14T13:28:00;-4.50;99.90
3478;DHT22;37937;61.490;23.506;2023-12-14T13:30:25;-4.40;99.90
3478;DHT22;37937;61.490;23.506;2023-12-14T13:32:52;-4.50;99.90
3478;DHT22;37937;61.490;23.506;2023-12-14T13:35:19;-4.50;99.90
3478;DHT22;37937;61.490;23.506;2023-12-14T13:37:45;-4.50;99.90
3478;DHT22;37937;61.490;23.506;2023-12-14T13:40:11;-4.60;99.90
3478;DHT22;37937;61.490;23.506;2023-12-14T13:42:38;-4.60;99.90
3478;DHT22;37937;61.490;23.506;2023-12-14T13:45:04;-4.60;99.90
3478;DHT22;37937;61.490;23.506;2023-12-14T13:47:30;-4.60;99.90
3478;DHT22;37937;61.490;23.506;2023-12-14T13:49:55;-4.60;99.90
3478;DHT22;37937;61.490;23.506;2023-12-14T13:52:21;-4.60;99.90
3478;DHT22;37937;61.490;23.506;2023-12-14T13:54:46;-4.60;99.90
3478;DHT22;37937;61.490;23.506;2023-12-14T13:57:12;-4.60;99.90
3478;DHT22;37937;61.490;23.506;2023-12-14T13:59:37;-4.50;99.90
3478;DHT22;37937;61.490;23.506;2023-12-14T14:02:03;-4.50;99.90
3478;DHT22;37937;61.490;23.506;2023-12-14T14:04:29;-4.50;99.90
3478;DHT22;37937;61.490;23.506;2023-12-14T14:06:54;-4.50;99.90
3478;DHT22;37937;61.490;23.506;2023-12-14T14:09:22;-4.50;99.90
3478;DHT22;37937;61.490;23.506;2023-12-14T14:11:47;-4.50;99.90
3478;DHT22;37937;61.490;23.506;2023-12-14T14:14:14;-4.40;99.90
3478;DHT22;37937;61.490;23.506;2023-12-14T14:16:40;-4.40;99.90
3478;DHT22;37937;61.490;23.506;2023-12-14T14:19:06;-4.40;99.90
3478;DHT22;37937;61.490;23.506;2023-12-14T14:21:31;-4.30;99.90
3478;DHT22;37937;61.490;23.506;2023-12-14T14:23:57;-4.40;99.90
3478;DHT22;37937;61.490;23.506;2023-12-14T14:26:22;-4.30;99.90
3478;DHT22;37937;61.490;23.506;2023-12-14T14:28:48;-4.40;99.90
3478;DHT22;37937;61.490;23.506;2023-12-14T14:31:13;-4.40;99.90
3478;DHT22;37937;61.490;23.506;2023-12-14T14:33:39;-4.30;99.90
3478;DHT22;37937;61.490;23.506;2023-12-14T14:36:05;-4.30;99.90
3478;DHT22;37937;61.490;23.506;2023-12-14T14:38:31;-4.30;99.90
3478;DHT22;37937;61.490;23.506;2023-12-14T14:40:56;-4.20;99.90
3478;DHT22;37937;61.490;23.506;2023-12-14T14:43:23;-4.20;99.90
3478;DHT22;37937;61.490;23.506;2023-12-14T14:45:49;-4.20;99.90
3478;DHT22;37937;61.490;23.506;2023-12-14T14:48:15;-4.20;99.90
3478;DHT22;37937;61.490;23.506;2023-12-14T14:50:40;-4.30;99.90
3478;DHT22;37937;61.490;23.506;2023-12-14T14:53:06;-4.30;99.90
3478;DHT22;37937;61.490;23.506;2023-12-14T14:55:32;-4.20;99.90
3478;DHT22;37937;61.490;23.506;2023-12-14T14:57:58;-4.30;99.90
3478;DHT22;37937;61.490;23.506;2023-12-14T15:00:24;-4.30;99.90
3478;DHT22;37937;61.490;23.506;2023-12-14T15:02:51;-4.30;99.90
3478;DHT22;37937;61.490;23.506;2023-12-14T15:05:16;-4.30;99.90
3478;DHT22;37937;61.490;23.506;2023-12-14T15:07:42;-4.30;99.90
3478;DHT22;37937;61.490;23.506;2023-12-14T15:10:08;-4.30;99.90
3478;DHT22;37937;61.490;23.506;2023-12-14T15:12:33;-4.30;99.90
3478;DHT22;37937;61.490;23.506;2023-12-14T15:14:59;-4.30;99.90
3478;DHT22;37937;61.490;23.506;2023-12-14T15:17:25;-4.30;99.90
3478;DHT22;37937;61.490;23.506;2023-12-14T15:19:50;-4.30;99.90
3478;DHT22;37937;61.490;23.506;2023-12-14T15:22:16;-4.30;99.90
3478;DHT22;37937;61.490;23.506;2023-12-14T15:24:41;-4.30;99.90
3478;DHT22;37937;61.490;23.506;2023-12-14T15:27:07;-4.30;99.90